• Join FlightAware (Why Join?)
  • Login
  • US Flag 
09:54PM EDT


 

Airport Tracker/Info


-or-


 

Live Flight TrackerFlight Track Log ✈ N444RF ✈ 08-May-2013 ✈ KRNT - KOAK

Flight Track Log - Related Links

Times and Time Zones

All times are in EDT time to prevent confusion due to time zone crossing. See the N444RF flight status page for this flight to view local times or setup timezone preferences in your user account.

Time Position Orientation Groundspeed Altitude Reporting Facility
EDT Latitude Longitude Course Direction KTS MPH feet Rate Location/Type
04:31PM 47.4750 -122.2131 150° Southeast 170 196 1,000  Level Seattle Center
04:32PM 47.4325 -122.1775 150° Southeast 216 249 4,500 3,660 Climbing Seattle Center
04:33PM 47.4094 -122.1550 147° Southeast 212 244 5,800 3,000 Climbing Seattle Center
04:34PM 47.3458 -122.1419 172° South 233 268 9,000 1,500 Climbing Seattle Center
04:35PM 47.2717 -122.1347 176° South 266 306 8,900 1,320 Descending Seattle Center
04:36PM 47.1917 -122.1339 180° South 269 310 11,800 2,580 Climbing Seattle Center
04:37PM 47.1178 -122.1292 178° South 270 311 14,200 2,640 Climbing Seattle Center
04:38PM 47.0350 -122.1283 180° South 295 339 17,200 2,460 Climbing Seattle Center
04:39PM 46.9592 -122.1069 169° South 314 361 19,300 2,100 Climbing Seattle Center
04:40PM 46.8719 -122.0894 172° South 324 373 21,500 2,160 Climbing Seattle Center
04:41PM 46.7803 -122.1006 185° South 333 383 23,800 2,400 Climbing Seattle Center
04:42PM 46.6647 -122.1044 181° South 349 402 26,400 2,400 Climbing Seattle Center
04:43PM 46.5683 -122.0831 171° South 353 406 28,700 2,160 Climbing Seattle Center
04:44PM 46.4700 -122.0761 177° South 357 411 30,800 1,920 Climbing Seattle Center
04:45PM 46.3722 -122.0628 175° South 356 410 32,700 1,620 Climbing Seattle Center
04:46PM 46.2733 -122.0583 178° South 360 414 34,200 1,320 Climbing Seattle Center
04:47PM 46.1772 -122.0475 176° South 366 421 35,500 1,140 Climbing Seattle Center
04:48PM 46.0731 -122.0394 177° South 373 429 36,600 1,080 Climbing Seattle Center
04:50PM 45.8369 -122.0186 176° South 385 443 38,900 1,080 Climbing Seattle Center
04:51PM 45.7283 -122.0092 177° South 391 450 39,900 960 Climbing Seattle Center
04:52PM 45.6222 -121.9986 176° South 383 441 40,900 540 Climbing Seattle Center
04:53PM 45.5128 -121.9925 178° South 392 451 41,000  Climbing Seattle Center
04:54PM 45.4006 -121.9803 176° South 403 464 41,000  Level Seattle Center
04:55PM 45.2831 -121.9722 177° South 417 480 41,000  Level Seattle Center
04:56PM 45.1658 -121.9619 176° South 421 484 41,000  Level Seattle Center
04:57PM 45.0453 -121.9519 177° South 432 497 41,000  Level Seattle Center
04:58PM 44.9275 -121.9419 177° South 424 488 41,000  Level Seattle Center
04:59PM 44.8156 -121.9314 176° South 411 473 41,000  Level Seattle Center
05:00PM 44.6981 -121.9242 177° South 419 482 41,000  Level Seattle Center
05:01PM 44.5797 -121.9125 176° South 423 487 41,000  Level Seattle Center
05:02PM 44.4400 -121.9036 177° South 420 483 41,000  Level Seattle Center
05:03PM 44.3400 -121.8931 176° South 416 479 41,000  Level Seattle Center
05:04PM 44.2256 -121.8853 177° South 414 476 41,000  Level Seattle Center
05:05PM 44.1117 -121.8761 177° South 413 475 41,000  Level Seattle Center
05:06PM 43.9972 -121.8664 177° South 414 476 41,000  Level Seattle Center
05:07PM 43.8592 -121.8569 177° South 414 476 41,000  Level Seattle Center
05:08PM 43.7622 -121.8486 176° South 417 480 41,000  Level Seattle Center
05:09PM 43.6472 -121.8433 178° South 416 479 41,000  Level Seattle Center
05:10PM 43.5089 -121.8336 177° South 414 476 41,000  Level Seattle Center
05:11PM 43.3947 -121.8214 176° South 414 476 41,000  Level Seattle Center
05:12PM 43.2789 -121.8142 177° South 417 480 41,000  Level Seattle Center
05:13PM 43.1642 -121.8019 176° South 415 478 41,000  Level Seattle Center
05:14PM 43.0486 -121.7944 177° South 414 476 41,000  Level Seattle Center
05:15PM 42.9333 -121.7872 177° South 415 478 41,000  Level Seattle Center
05:16PM 42.8183 -121.7808 178° South 412 474 41,000  Level Seattle Center
05:17PM 42.7033 -121.7700 176° South 414 476 41,000  Level Seattle Center
05:18PM 42.5883 -121.7625 177° South 412 474 41,000  Level Seattle Center
05:19PM 42.4714 -121.7508 176° South 409 471 41,000  Level Seattle Center
05:20PM 42.3592 -121.7431 177° South 410 472 41,000  Level Seattle Center
05:21PM 42.2425 -121.7361 177° South 414 476 41,000  Level Seattle Center
05:22PM 42.1264 -121.7344 179° South 413 475 41,000  Level Seattle Center
05:23PM 42.0119 -121.7653 191° South 407 468 41,000  Level Seattle Center
05:24PM 41.8975 -121.7936 190° South 409 471 41,000  Level Seattle Center
05:25PM 41.7819 -121.8231 191° South 416 479 41,000  Level Seattle Center
05:26PM 41.6517 -121.8533 190° South 417 480 41,000  Level Seattle Center
05:27PM 41.5511 -121.8811 192° South 421 484 41,000  Level Seattle Center
05:29PM 41.4361 -121.9097 191° South 420 483 41,000  Level Seattle Center
05:30PM 41.2986 -121.9467 191° South 418 481 41,000  Level Seattle Center
05:31PM 41.1833 -121.9756 191° South 421 484 41,000  Level Seattle Center
05:32PM 41.0786 -122.0069 193° South 419 482 41,000  Level Seattle Center
05:32PM 41.0092 -122.0217 189° South 423 487 41,000  Level Oakland Center
05:33PM 40.8936 -122.0519 191° South 424 488 41,000  Level Oakland Center
05:34PM 40.7575 -122.0886 192° South 419 482 41,000  Level Oakland Center
05:35PM 40.6422 -122.1186 191° South 420 483 41,000  Level Oakland Center
05:36PM 40.5272 -122.1503 192° South 422 486 41,000  Level Oakland Center
05:37PM 40.4139 -122.1767 190° South 418 481 41,000  Level Oakland Center
05:38PM 40.3003 -122.2069 191° South 416 479 41,000  Level Oakland Center
05:40PM 40.0592 -122.2692 191° South 424 488 41,000 -180 Level Oakland Center
05:41PM 39.9422 -122.3011 192° South 424 488 40,500 -1,080 Descending Oakland Center
05:42PM 39.8292 -122.3267 190° South 411 473 38,800 -1,800 Descending Oakland Center
05:43PM 39.7175 -122.3569 192° South 406 467 36,900 -1,920 Descending Oakland Center
05:44PM 39.6031 -122.3847 191° South 419 482 35,000 -1,980 Descending Oakland Center
05:45PM 39.4747 -122.4186 192° South 423 487 32,900 -1,980 Descending Oakland Center
05:47PM 39.3631 -122.4436 190° South 407 468 31,000 -1,920 Descending Oakland Center
05:48PM 39.2508 -122.4736 192° South 410 472 29,000 -1,920 Descending Oakland Center
05:49PM 39.1367 -122.5000 190° South 416 479 27,100 -1,020 Descending Oakland Center
05:50PM 39.0253 -122.5308 192° South 407 468 27,000 -540 Descending Oakland Center
05:51PM 38.9189 -122.5539 190° South 396 456 26,000 -1,620 Descending Oakland Center
05:52PM 38.7906 -122.5878 192° South 391 450 23,800 -2,160 Descending Oakland Center
05:53PM 38.6867 -122.6133 191° South 381 438 21,600 -2,160 Descending Oakland Center
05:54PM 38.5822 -122.6364 190° South 382 440 19,400 -2,100 Descending Oakland Center
05:55PM 38.4806 -122.6392 181° South 367 422 17,400 -2,100 Descending Oakland Center
05:56PM 38.3825 -122.6225 172° South 356 410 15,200 -2,100 Descending Oakland Center
05:57PM 38.2942 -122.6056 171° South 324 373 13,200 -1,860 Descending Oakland Center
05:58PM 38.2044 -122.5889 172° South 324 373 11,400 -1,860 Descending Oakland Center
05:59PM 38.1169 -122.5728 172° South 319 367 9,500 -1,800 Descending Oakland Center
06:00PM 38.0344 -122.5506 168° South 309 356 7,800 -1,380 Descending Oakland Center
06:01PM 37.9786 -122.4925 141° Southeast 264 304 6,700 -1,320 Descending Oakland Center
06:02PM 37.9153 -122.4192 138° Southeast 255 293 5,100 -840 Descending Oakland Center
06:03PM 37.8750 -122.3417 123° Southeast 261 300 5,000 -60 Descending Oakland Center
06:04PM 37.8308 -122.2706 128° Southeast 260 299 5,000  Level Oakland Center
06:05PM 37.7964 -122.2053 124° Southeast 231 266 5,000  Level Oakland Center
06:06PM 37.7631 -122.1408 123° Southeast 222 255 5,000  Level Oakland Center
06:07PM 37.7436 -122.0592 107° East 258 297 5,100  Climbing Oakland Center
06:08PM 37.7397 -121.9850 94° East 226 260 5,000  Descending Oakland Center
06:09PM 37.7239 -121.9161 106° East 208 239 5,100  Climbing Oakland Center
06:10PM 37.6750 -121.8739 146° Southeast 209 241 5,000  Descending Oakland Center
06:10PM 37.6500 -121.8500 143° Southeast 209 241 5,100 -420 Climbing Northern Cal TRACON
06:11PM 37.6167 -121.9000 230° Southwest 197 227 4,500 -540 Descending Northern Cal TRACON
06:12PM 37.6381 -121.9369 306° West 180 207 4,200 -480 Descending Oakland Center
06:13PM 37.6583 -121.9953 294° West 182 209 3,700 -900 Descending Oakland Center
06:14PM 37.6775 -122.0553 292° West 183 211 2,400 -1,080 Descending Oakland Center
06:15PM 37.6942 -122.1083 292° West 173 199 1,600 -780 Descending Oakland Center
06:16PM 37.7053 -122.1428 292° West 132 152 900 -660 Descending Oakland Center
06:17PM 37.7164 -122.1822 290° West 122 140 300 2,940 Descending Oakland Center
06:18PM 37.7278 -122.2147 294° West 113 130 7,000 6,480 Climbing Oakland Center